sensor_id;sensor_type;location;lat;lon;timestamp;P1;durP1;ratioP1;P2;durP2;ratioP2
71202;SDS011;58929;47.490;19.090;2023-11-21T00:00:05;24.23;;;9.52;;
71202;SDS011;58929;47.490;19.090;2023-11-21T00:02:39;19.85;;;9.15;;
71202;SDS011;58929;47.490;19.090;2023-11-21T00:05:07;23.35;;;8.38;;
71202;SDS011;58929;47.490;19.090;2023-11-21T00:07:37;23.35;;;9.50;;
71202;SDS011;58929;47.490;19.090;2023-11-21T00:10:06;17.20;;;8.07;;
71202;SDS011;58929;47.490;19.090;2023-11-21T00:12:36;23.83;;;8.75;;
71202;SDS011;58929;47.490;19.090;2023-11-21T00:15:05;23.40;;;8.43;;
71202;SDS011;58929;47.490;19.090;2023-11-21T00:17:36;20.25;;;7.60;;
71202;SDS011;58929;47.490;19.090;2023-11-21T00:20:05;14.75;;;6.75;;
71202;SDS011;58929;47.490;19.090;2023-11-21T00:22:36;14.65;;;7.05;;
71202;SDS011;58929;47.490;19.090;2023-11-21T00:25:05;16.63;;;7.80;;
71202;SDS011;58929;47.490;19.090;2023-11-21T00:27:37;25.90;;;7.93;;
71202;SDS011;58929;47.490;19.090;2023-11-21T00:30:06;17.45;;;8.30;;
71202;SDS011;58929;47.490;19.090;2023-11-21T00:32:35;16.00;;;7.90;;
71202;SDS011;58929;47.490;19.090;2023-11-21T00:35:03;23.92;;;8.65;;
71202;SDS011;58929;47.490;19.090;2023-11-21T00:37:32;18.42;;;8.48;;
71202;SDS011;58929;47.490;19.090;2023-11-21T00:40:00;14.13;;;8.27;;
71202;SDS011;58929;47.490;19.090;2023-11-21T00:42:33;14.60;;;7.05;;
71202;SDS011;58929;47.490;19.090;2023-11-21T00:45:04;19.10;;;8.07;;
71202;SDS011;58929;47.490;19.090;2023-11-21T00:47:32;16.17;;;8.25;;
71202;SDS011;58929;47.490;19.090;2023-11-21T00:50:00;18.73;;;8.98;;
71202;SDS011;58929;47.490;19.090;2023-11-21T00:52:38;17.60;;;8.93;;
71202;SDS011;58929;47.490;19.090;2023-11-21T00:55:07;13.45;;;7.20;;
71202;SDS011;58929;47.490;19.090;2023-11-21T00:57:36;16.48;;;7.28;;
71202;SDS011;58929;47.490;19.090;2023-11-21T01:00:07;11.32;;;6.15;;
71202;SDS011;58929;47.490;19.090;2023-11-21T01:02:42;11.77;;;6.45;;
71202;SDS011;58929;47.490;19.090;2023-11-21T01:05:11;11.52;;;5.78;;
71202;SDS011;58929;47.490;19.090;2023-11-21T01:07:39;14.63;;;6.65;;
71202;SDS011;58929;47.490;19.090;2023-11-21T01:10:07;12.55;;;6.40;;
71202;SDS011;58929;47.490;19.090;2023-11-21T01:12:36;17.08;;;5.95;;
71202;SDS011;58929;47.490;19.090;2023-11-21T01:15:07;13.57;;;6.63;;
71202;SDS011;58929;47.490;19.090;2023-11-21T01:17:35;11.02;;;5.95;;
71202;SDS011;58929;47.490;19.090;2023-11-21T01:20:05;12.50;;;6.00;;
71202;SDS011;58929;47.490;19.090;2023-11-21T01:22:39;15.98;;;5.60;;
71202;SDS011;58929;47.490;19.090;2023-11-21T01:25:07;10.98;;;5.47;;
71202;SDS011;58929;47.490;19.090;2023-11-21T01:27:35;11.48;;;5.10;;
71202;SDS011;58929;47.490;19.090;2023-11-21T01:30:04;20.83;;;7.50;;
71202;SDS011;58929;47.490;19.090;2023-11-21T01:32:35;22.05;;;8.30;;
71202;SDS011;58929;47.490;19.090;2023-11-21T01:35:04;16.52;;;5.85;;
71202;SDS011;58929;47.490;19.090;2023-11-21T01:37:33;12.30;;;5.50;;
71202;SDS011;58929;47.490;19.090;2023-11-21T01:40:01;10.32;;;5.03;;
71202;SDS011;58929;47.490;19.090;2023-11-21T01:42:31;16.33;;;7.15;;
71202;SDS011;58929;47.490;19.090;2023-11-21T01:45:00;13.13;;;5.70;;
71202;SDS011;58929;47.490;19.090;2023-11-21T01:47:31;11.15;;;4.90;;
71202;SDS011;58929;47.490;19.090;2023-11-21T01:50:01;16.20;;;6.50;;
71202;SDS011;58929;47.490;19.090;2023-11-21T01:52:31;17.27;;;6.25;;
71202;SDS011;58929;47.490;19.090;2023-11-21T01:55:01;14.32;;;6.28;;
71202;SDS011;58929;47.490;19.090;2023-11-21T01:57:30;15.15;;;6.03;;
71202;SDS011;58929;47.490;19.090;2023-11-21T01:59:58;10.93;;;6.05;;
71202;SDS011;58929;47.490;19.090;2023-11-21T02:02:26;13.70;;;6.20;;
71202;SDS011;58929;47.490;19.090;2023-11-21T02:04:55;13.45;;;6.13;;
71202;SDS011;58929;47.490;19.090;2023-11-21T02:07:24;17.85;;;6.70;;
71202;SDS011;58929;47.490;19.090;2023-11-21T02:09:54;15.75;;;8.00;;
71202;SDS011;58929;47.490;19.090;2023-11-21T02:12:23;13.07;;;6.10;;
71202;SDS011;58929;47.490;19.090;2023-11-21T02:14:53;14.10;;;6.20;;
71202;SDS011;58929;47.490;19.090;2023-11-21T02:17:22;21.33;;;7.25;;
71202;SDS011;58929;47.490;19.090;2023-11-21T02:19:50;16.60;;;6.90;;
71202;SDS011;58929;47.490;19.090;2023-11-21T02:22:18;13.25;;;6.03;;
71202;SDS011;58929;47.490;19.090;2023-11-21T02:24:51;13.43;;;5.80;;
71202;SDS011;58929;47.490;19.090;2023-11-21T02:27:19;13.00;;;6.68;;
71202;SDS011;58929;47.490;19.090;2023-11-21T02:29:49;18.45;;;6.22;;
71202;SDS011;58929;47.490;19.090;2023-11-21T02:32:17;15.82;;;6.88;;
71202;SDS011;58929;47.490;19.090;2023-11-21T02:34:49;12.63;;;5.30;;
71202;SDS011;58929;47.490;19.090;2023-11-21T02:37:17;15.10;;;5.90;;
71202;SDS011;58929;47.490;19.090;2023-11-21T02:39:45;12.80;;;6.38;;
71202;SDS011;58929;47.490;19.090;2023-11-21T02:42:14;13.45;;;6.15;;
71202;SDS011;58929;47.490;19.090;2023-11-21T02:44:42;16.48;;;5.63;;
71202;SDS011;58929;47.490;19.090;2023-11-21T02:47:11;13.57;;;5.72;;
71202;SDS011;58929;47.490;19.090;2023-11-21T02:49:39;10.18;;;5.57;;
71202;SDS011;58929;47.490;19.090;2023-11-21T02:52:09;13.25;;;6.53;;
71202;SDS011;58929;47.490;19.090;2023-11-21T02:54:37;16.02;;;6.10;;
71202;SDS011;58929;47.490;19.090;2023-11-21T02:57:04;25.92;;;6.53;;
71202;SDS011;58929;47.490;19.090;2023-11-21T02:59:35;13.07;;;6.10;;
71202;SDS011;58929;47.490;19.090;2023-11-21T03:02:03;10.55;;;5.95;;
71202;SDS011;58929;47.490;19.090;2023-11-21T03:04:35;14.57;;;6.85;;
71202;SDS011;58929;47.490;19.090;2023-11-21T03:07:03;14.18;;;6.88;;
71202;SDS011;58929;47.490;19.090;2023-11-21T03:09:32;17.73;;;6.18;;
71202;SDS011;58929;47.490;19.090;2023-11-21T03:11:59;13.18;;;7.03;;
71202;SDS011;58929;47.490;19.090;2023-11-21T03:14:27;19.42;;;8.15;;
71202;SDS011;58929;47.490;19.090;2023-11-21T03:17:04;12.32;;;6.38;;
71202;SDS011;58929;47.490;19.090;2023-11-21T03:19:33;12.25;;;6.40;;
71202;SDS011;58929;47.490;19.090;2023-11-21T03:22:01;13.30;;;6.65;;
71202;SDS011;58929;47.490;19.090;2023-11-21T03:24:31;13.68;;;6.70;;
71202;SDS011;58929;47.490;19.090;2023-11-21T03:27:00;16.75;;;6.63;;
71202;SDS011;58929;47.490;19.090;2023-11-21T03:29:27;21.30;;;9.05;;
71202;SDS011;58929;47.490;19.090;2023-11-21T03:31:57;17.13;;;7.07;;
71202;SDS011;58929;47.490;19.090;2023-11-21T03:34:25;21.23;;;7.00;;
71202;SDS011;58929;47.490;19.090;2023-11-21T03:36:54;17.77;;;8.35;;
71202;SDS011;58929;47.490;19.090;2023-11-21T03:39:22;16.73;;;7.18;;
71202;SDS011;58929;47.490;19.090;2023-11-21T03:41:52;18.15;;;6.82;;
71202;SDS011;58929;47.490;19.090;2023-11-21T03:44:21;17.23;;;6.85;;
71202;SDS011;58929;47.490;19.090;2023-11-21T03:46:51;16.65;;;7.38;;
71202;SDS011;58929;47.490;19.090;2023-11-21T03:49:21;16.83;;;8.02;;
71202;SDS011;58929;47.490;19.090;2023-11-21T03:51:49;18.30;;;8.88;;
71202;SDS011;58929;47.490;19.090;2023-11-21T03:54:17;48.80;;;10.20;;
71202;SDS011;58929;47.490;19.090;2023-11-21T03:56:45;17.40;;;8.13;;
71202;SDS011;58929;47.490;19.090;2023-11-21T03:59:14;19.85;;;8.95;;
71202;SDS011;58929;47.490;19.090;2023-11-21T04:01:42;18.60;;;8.13;;
71202;SDS011;58929;47.490;19.090;2023-11-21T04:04:10;16.30;;;8.75;;
71202;SDS011;58929;47.490;19.090;2023-11-21T04:06:40;17.15;;;8.27;;
71202;SDS011;58929;47.490;19.090;2023-11-21T04:09:08;21.80;;;8.85;;
71202;SDS011;58929;47.490;19.090;2023-11-21T04:11:36;14.02;;;7.95;;
71202;SDS011;58929;47.490;19.090;2023-11-21T04:14:04;18.17;;;7.28;;
71202;SDS011;58929;47.490;19.090;2023-11-21T04:16:32;30.52;;;10.25;;
71202;SDS011;58929;47.490;19.090;2023-11-21T04:19:00;21.55;;;7.97;;
71202;SDS011;58929;47.490;19.090;2023-11-21T04:21:28;20.63;;;8.60;;
71202;SDS011;58929;47.490;19.090;2023-11-21T04:23:58;26.33;;;9.85;;
71202;SDS011;58929;47.490;19.090;2023-11-21T04:26:26;18.95;;;8.27;;
71202;SDS011;58929;47.490;19.090;2023-11-21T04:28:54;18.58;;;9.18;;
71202;SDS011;58929;47.490;19.090;2023-11-21T04:31:22;19.08;;;8.85;;
71202;SDS011;58929;47.490;19.090;2023-11-21T04:33:50;27.25;;;10.10;;
71202;SDS011;58929;47.490;19.090;2023-11-21T04:36:18;21.63;;;9.85;;
71202;SDS011;58929;47.490;19.090;2023-11-21T04:38:47;29.75;;;10.68;;
71202;SDS011;58929;47.490;19.090;2023-11-21T04:41:17;18.60;;;9.32;;
71202;SDS011;58929;47.490;19.090;2023-11-21T04:43:45;23.63;;;9.93;;
71202;SDS011;58929;47.490;19.090;2023-11-21T04:46:13;19.75;;;9.70;;
71202;SDS011;58929;47.490;19.090;2023-11-21T04:49:05;31.50;;;12.57;;
71202;SDS011;58929;47.490;19.090;2023-11-21T04:51:33;22.42;;;10.27;;
71202;SDS011;58929;47.490;19.090;2023-11-21T04:54:01;18.27;;;8.95;;
71202;SDS011;58929;47.490;19.090;2023-11-21T04:56:30;20.52;;;9.10;;
71202;SDS011;58929;47.490;19.090;2023-11-21T04:58:58;16.98;;;9.13;;
71202;SDS011;58929;47.490;19.090;2023-11-21T05:01:26;30.48;;;10.63;;
71202;SDS011;58929;47.490;19.090;2023-11-21T05:03:55;19.35;;;9.05;;
71202;SDS011;58929;47.490;19.090;2023-11-21T05:06:23;27.60;;;10.02;;
71202;SDS011;58929;47.490;19.090;2023-11-21T05:08:51;28.88;;;9.85;;
71202;SDS011;58929;47.490;19.090;2023-11-21T05:11:23;19.08;;;9.15;;
71202;SDS011;58929;47.490;19.090;2023-11-21T05:13:52;22.15;;;9.05;;
71202;SDS011;58929;47.490;19.090;2023-11-21T05:16:22;25.42;;;8.60;;
71202;SDS011;58929;47.490;19.090;2023-11-21T05:18:50;22.08;;;8.85;;
71202;SDS011;58929;47.490;19.090;2023-11-21T05:21:18;16.85;;;8.93;;
71202;SDS011;58929;47.490;19.090;2023-11-21T05:23:47;28.90;;;10.00;;
71202;SDS011;58929;47.490;19.090;2023-11-21T05:26:15;25.58;;;11.70;;
71202;SDS011;58929;47.490;19.090;2023-11-21T05:28:46;26.50;;;9.23;;
71202;SDS011;58929;47.490;19.090;2023-11-21T05:31:15;22.10;;;8.57;;
71202;SDS011;58929;47.490;19.090;2023-11-21T05:33:44;21.02;;;8.02;;
71202;SDS011;58929;47.490;19.090;2023-11-21T05:36:12;22.73;;;7.97;;
71202;SDS011;58929;47.490;19.090;2023-11-21T05:38:40;20.15;;;7.53;;
71202;SDS011;58929;47.490;19.090;2023-11-21T05:41:08;19.90;;;8.57;;
71202;SDS011;58929;47.490;19.090;2023-11-21T05:43:39;15.75;;;7.07;;
71202;SDS011;58929;47.490;19.090;2023-11-21T05:46:07;17.70;;;6.32;;
71202;SDS011;58929;47.490;19.090;2023-11-21T05:48:37;19.80;;;6.70;;
71202;SDS011;58929;47.490;19.090;2023-11-21T05:51:06;14.65;;;6.05;;
71202;SDS011;58929;47.490;19.090;2023-11-21T05:53:35;15.98;;;6.88;;
71202;SDS011;58929;47.490;19.090;2023-11-21T05:56:03;9.48;;;4.75;;
71202;SDS011;58929;47.490;19.090;2023-11-21T05:58:31;16.85;;;6.45;;
71202;SDS011;58929;47.490;19.090;2023-11-21T06:00:59;19.85;;;6.47;;
71202;SDS011;58929;47.490;19.090;2023-11-21T06:03:27;16.08;;;7.70;;
71202;SDS011;58929;47.490;19.090;2023-11-21T06:05:57;22.23;;;7.43;;
71202;SDS011;58929;47.490;19.090;2023-11-21T06:08:25;17.67;;;7.05;;
71202;SDS011;58929;47.490;19.090;2023-11-21T06:10:53;14.20;;;6.10;;
71202;SDS011;58929;47.490;19.090;2023-11-21T06:13:22;19.27;;;7.32;;
71202;SDS011;58929;47.490;19.090;2023-11-21T06:15:51;17.05;;;6.47;;
71202;SDS011;58929;47.490;19.090;2023-11-21T06:18:19;16.70;;;6.75;;
71202;SDS011;58929;47.490;19.090;2023-11-21T06:20:47;11.98;;;6.38;;
71202;SDS011;58929;47.490;19.090;2023-11-21T06:23:16;13.38;;;7.20;;
71202;SDS011;58929;47.490;19.090;2023-11-21T06:25:45;14.85;;;7.45;;
71202;SDS011;58929;47.490;19.090;2023-11-21T06:28:13;16.58;;;7.15;;
71202;SDS011;58929;47.490;19.090;2023-11-21T06:30:44;16.95;;;7.10;;
71202;SDS011;58929;47.490;19.090;2023-11-21T06:33:12;19.00;;;7.55;;
71202;SDS011;58929;47.490;19.090;2023-11-21T06:35:40;24.77;;;9.02;;
71202;SDS011;58929;47.490;19.090;2023-11-21T06:38:09;18.13;;;9.07;;
71202;SDS011;58929;47.490;19.090;2023-11-21T06:40:38;22.40;;;9.68;;
71202;SDS011;58929;47.490;19.090;2023-11-21T06:43:07;28.13;;;11.40;;
71202;SDS011;58929;47.490;19.090;2023-11-21T06:45:35;27.90;;;10.82;;
71202;SDS011;58929;47.490;19.090;2023-11-21T06:48:03;22.55;;;11.10;;
71202;SDS011;58929;47.490;19.090;2023-11-21T06:50:31;21.42;;;10.57;;
71202;SDS011;58929;47.490;19.090;2023-11-21T06:52:59;23.23;;;11.57;;
71202;SDS011;58929;47.490;19.090;2023-11-21T06:55:30;20.17;;;10.10;;
71202;SDS011;58929;47.490;19.090;2023-11-21T06:58:00;23.38;;;10.00;;
71202;SDS011;58929;47.490;19.090;2023-11-21T07:00:28;23.67;;;10.15;;
71202;SDS011;58929;47.490;19.090;2023-11-21T07:02:56;33.40;;;14.07;;
71202;SDS011;58929;47.490;19.090;2023-11-21T07:05:25;32.50;;;12.63;;
71202;SDS011;58929;47.490;19.090;2023-11-21T07:07:53;35.00;;;15.13;;
71202;SDS011;58929;47.490;19.090;2023-11-21T07:10:21;24.30;;;10.10;;
71202;SDS011;58929;47.490;19.090;2023-11-21T07:12:50;19.40;;;8.27;;
71202;SDS011;58929;47.490;19.090;2023-11-21T07:15:20;24.85;;;7.70;;
71202;SDS011;58929;47.490;19.090;2023-11-21T07:17:49;40.53;;;16.80;;
71202;SDS011;58929;47.490;19.090;2023-11-21T07:20:17;24.10;;;9.32;;
71202;SDS011;58929;47.490;19.090;2023-11-21T07:22:45;26.48;;;9.18;;
71202;SDS011;58929;47.490;19.090;2023-11-21T07:25:13;22.73;;;8.38;;
71202;SDS011;58929;47.490;19.090;2023-11-21T07:27:40;25.30;;;10.13;;
71202;SDS011;58929;47.490;19.090;2023-11-21T07:30:09;24.13;;;10.45;;
71202;SDS011;58929;47.490;19.090;2023-11-21T07:32:39;20.05;;;7.07;;
71202;SDS011;58929;47.490;19.090;2023-11-21T07:35:08;17.42;;;7.18;;
71202;SDS011;58929;47.490;19.090;2023-11-21T07:37:36;20.35;;;8.93;;
71202;SDS011;58929;47.490;19.090;2023-11-21T07:40:05;18.38;;;6.93;;
71202;SDS011;58929;47.490;19.090;2023-11-21T07:42:35;21.48;;;8.88;;
71202;SDS011;58929;47.490;19.090;2023-11-21T07:45:04;14.18;;;4.43;;
71202;SDS011;58929;47.490;19.090;2023-11-21T07:47:36;16.33;;;4.35;;
71202;SDS011;58929;47.490;19.090;2023-11-21T07:50:08;13.07;;;4.10;;
71202;SDS011;58929;47.490;19.090;2023-11-21T07:52:36;17.88;;;4.57;;
71202;SDS011;58929;47.490;19.090;2023-11-21T07:55:04;9.82;;;4.38;;
71202;SDS011;58929;47.490;19.090;2023-11-21T07:57:34;12.10;;;4.65;;
71202;SDS011;58929;47.490;19.090;2023-11-21T08:00:02;14.43;;;4.57;;
71202;SDS011;58929;47.490;19.090;2023-11-21T14:56:16;7.18;;;3.83;;
71202;SDS011;58929;47.490;19.090;2023-11-21T15:01:20;6.47;;;3.28;;
71202;SDS011;58929;47.490;19.090;2023-11-21T15:04:00;10.27;;;2.92;;
71202;SDS011;58929;47.490;19.090;2023-11-21T15:06:27;9.32;;;3.45;;
71202;SDS011;58929;47.490;19.090;2023-11-21T15:08:57;14.07;;;4.45;;
71202;SDS011;58929;47.490;19.090;2023-11-21T15:11:48;18.92;;;5.38;;
71202;SDS011;58929;47.490;19.090;2023-11-21T15:14:17;14.73;;;5.30;;
71202;SDS011;58929;47.490;19.090;2023-11-21T15:16:50;9.05;;;3.63;;
71202;SDS011;58929;47.490;19.090;2023-11-21T15:19:20;15.35;;;4.40;;
71202;SDS011;58929;47.490;19.090;2023-11-21T15:21:52;13.32;;;3.70;;
71202;SDS011;58929;47.490;19.090;2023-11-21T15:24:20;13.38;;;4.00;;
71202;SDS011;58929;47.490;19.090;2023-11-21T15:26:50;12.13;;;4.55;;
71202;SDS011;58929;47.490;19.090;2023-11-21T15:29:18;12.30;;;3.72;;
71202;SDS011;58929;47.490;19.090;2023-11-21T15:31:48;12.40;;;4.10;;
71202;SDS011;58929;47.490;19.090;2023-11-21T15:34:16;14.35;;;4.25;;
71202;SDS011;58929;47.490;19.090;2023-11-21T15:36:44;9.98;;;3.17;;
71202;SDS011;58929;47.490;19.090;2023-11-21T15:39:12;26.23;;;4.07;;
71202;SDS011;58929;47.490;19.090;2023-11-21T15:41:40;9.52;;;4.13;;
71202;SDS011;58929;47.490;19.090;2023-11-21T15:44:10;19.17;;;3.40;;
71202;SDS011;58929;47.490;19.090;2023-11-21T15:46:38;14.35;;;3.72;;
71202;SDS011;58929;47.490;19.090;2023-11-21T15:49:08;14.60;;;4.10;;
71202;SDS011;58929;47.490;19.090;2023-11-21T15:51:40;11.15;;;3.90;;
71202;SDS011;58929;47.490;19.090;2023-11-21T15:54:11;13.85;;;6.53;;
71202;SDS011;58929;47.490;19.090;2023-11-21T15:56:41;17.95;;;4.95;;
71202;SDS011;58929;47.490;19.090;2023-11-21T15:59:12;15.57;;;4.22;;
71202;SDS011;58929;47.490;19.090;2023-11-21T16:01:40;9.85;;;3.63;;
71202;SDS011;58929;47.490;19.090;2023-11-21T16:04:18;12.50;;;3.65;;
71202;SDS011;58929;47.490;19.090;2023-11-21T16:06:48;7.43;;;3.83;;
71202;SDS011;58929;47.490;19.090;2023-11-21T16:09:19;8.48;;;3.75;;
71202;SDS011;58929;47.490;19.090;2023-11-21T16:11:50;8.43;;;3.22;;
71202;SDS011;58929;47.490;19.090;2023-11-21T16:14:24;15.50;;;4.43;;
71202;SDS011;58929;47.490;19.090;2023-11-21T16:16:56;11.90;;;4.18;;
71202;SDS011;58929;47.490;19.090;2023-11-21T16:19:24;8.73;;;3.97;;
71202;SDS011;58929;47.490;19.090;2023-11-21T16:21:55;14.38;;;4.28;;
71202;SDS011;58929;47.490;19.090;2023-11-21T16:24:23;13.48;;;4.03;;
71202;SDS011;58929;47.490;19.090;2023-11-21T16:26:53;9.68;;;4.93;;
71202;SDS011;58929;47.490;19.090;2023-11-21T16:29:24;12.70;;;5.30;;
71202;SDS011;58929;47.490;19.090;2023-11-21T16:31:53;10.00;;;4.85;;
71202;SDS011;58929;47.490;19.090;2023-11-21T16:34:21;13.25;;;4.93;;
71202;SDS011;58929;47.490;19.090;2023-11-21T16:36:49;15.50;;;5.88;;
71202;SDS011;58929;47.490;19.090;2023-11-21T16:39:23;9.68;;;4.10;;
71202;SDS011;58929;47.490;19.090;2023-11-21T16:41:51;8.60;;;4.80;;
71202;SDS011;58929;47.490;19.090;2023-11-21T16:44:20;11.27;;;3.72;;
71202;SDS011;58929;47.490;19.090;2023-11-21T16:46:50;11.48;;;5.88;;
71202;SDS011;58929;47.490;19.090;2023-11-21T16:49:21;14.50;;;3.85;;
71202;SDS011;58929;47.490;19.090;2023-11-21T16:51:49;6.03;;;3.63;;
71202;SDS011;58929;47.490;19.090;2023-11-21T16:54:17;10.30;;;4.72;;
71202;SDS011;58929;47.490;19.090;2023-11-21T16:56:46;12.52;;;4.78;;
71202;SDS011;58929;47.490;19.090;2023-11-21T16:59:17;14.27;;;4.72;;
71202;SDS011;58929;47.490;19.090;2023-11-21T17:01:47;14.00;;;4.25;;
71202;SDS011;58929;47.490;19.090;2023-11-21T17:04:17;10.73;;;4.07;;
71202;SDS011;58929;47.490;19.090;2023-11-21T17:06:45;21.45;;;5.35;;
71202;SDS011;58929;47.490;19.090;2023-11-21T17:09:14;11.90;;;4.65;;
71202;SDS011;58929;47.490;19.090;2023-11-21T17:11:46;19.27;;;5.20;;
71202;SDS011;58929;47.490;19.090;2023-11-21T17:14:15;15.80;;;5.05;;
71202;SDS011;58929;47.490;19.090;2023-11-21T17:16:43;11.57;;;4.93;;
71202;SDS011;58929;47.490;19.090;2023-11-21T17:19:17;14.15;;;4.85;;
71202;SDS011;58929;47.490;19.090;2023-11-21T17:21:46;16.30;;;5.43;;
71202;SDS011;58929;47.490;19.090;2023-11-21T17:24:14;13.88;;;5.15;;
71202;SDS011;58929;47.490;19.090;2023-11-21T17:26:42;9.77;;;5.18;;
71202;SDS011;58929;47.490;19.090;2023-11-21T17:29:11;11.60;;;4.68;;
71202;SDS011;58929;47.490;19.090;2023-11-21T17:31:40;13.57;;;5.65;;
71202;SDS011;58929;47.490;19.090;2023-11-21T17:34:10;24.08;;;5.40;;
71202;SDS011;58929;47.490;19.090;2023-11-21T17:36:41;11.98;;;4.28;;
71202;SDS011;58929;47.490;19.090;2023-11-21T17:39:12;8.75;;;5.05;;
71202;SDS011;58929;47.490;19.090;2023-11-21T17:41:41;10.73;;;4.50;;
71202;SDS011;58929;47.490;19.090;2023-11-21T17:44:09;13.65;;;5.20;;
71202;SDS011;58929;47.490;19.090;2023-11-21T17:46:37;15.77;;;6.10;;
71202;SDS011;58929;47.490;19.090;2023-11-21T17:49:05;10.43;;;5.55;;
71202;SDS011;58929;47.490;19.090;2023-11-21T17:51:38;8.95;;;5.03;;
71202;SDS011;58929;47.490;19.090;2023-11-21T17:54:07;16.25;;;4.88;;
71202;SDS011;58929;47.490;19.090;2023-11-21T17:56:37;10.55;;;5.47;;
71202;SDS011;58929;47.490;19.090;2023-11-21T17:59:07;20.30;;;6.07;;
71202;SDS011;58929;47.490;19.090;2023-11-21T18:01:36;15.93;;;7.25;;
71202;SDS011;58929;47.490;19.090;2023-11-21T18:04:05;11.27;;;6.95;;
71202;SDS011;58929;47.490;19.090;2023-11-21T18:06:33;15.85;;;6.60;;
71202;SDS011;58929;47.490;19.090;2023-11-21T18:09:01;16.63;;;6.22;;
71202;SDS011;58929;47.490;19.090;2023-11-21T18:11:31;17.20;;;7.15;;
71202;SDS011;58929;47.490;19.090;2023-11-21T18:13:59;13.32;;;6.80;;
71202;SDS011;58929;47.490;19.090;2023-11-21T18:16:32;13.88;;;6.40;;
71202;SDS011;58929;47.490;19.090;2023-11-21T18:19:00;16.70;;;6.95;;
71202;SDS011;58929;47.490;19.090;2023-11-21T18:21:29;12.95;;;6.78;;
71202;SDS011;58929;47.490;19.090;2023-11-21T18:23:57;19.88;;;7.32;;
71202;SDS011;58929;47.490;19.090;2023-11-21T18:26:25;17.00;;;7.15;;
71202;SDS011;58929;47.490;19.090;2023-11-21T18:28:54;13.50;;;7.10;;
71202;SDS011;58929;47.490;19.090;2023-11-21T18:31:22;16.17;;;7.45;;
71202;SDS011;58929;47.490;19.090;2023-11-21T18:33:50;16.48;;;8.75;;
71202;SDS011;58929;47.490;19.090;2023-11-21T18:36:18;20.95;;;8.98;;
71202;SDS011;58929;47.490;19.090;2023-11-21T18:38:47;14.45;;;7.65;;
71202;SDS011;58929;47.490;19.090;2023-11-21T18:41:19;17.13;;;8.23;;
71202;SDS011;58929;47.490;19.090;2023-11-21T18:43:48;22.63;;;9.65;;
71202;SDS011;58929;47.490;19.090;2023-11-21T18:46:17;22.90;;;9.43;;
71202;SDS011;58929;47.490;19.090;2023-11-21T18:48:45;18.33;;;8.27;;
71202;SDS011;58929;47.490;19.090;2023-11-21T18:51:16;46.47;;;19.23;;
71202;SDS011;58929;47.490;19.090;2023-11-21T18:53:44;85.78;;;32.30;;
71202;SDS011;58929;47.490;19.090;2023-11-21T18:56:18;37.10;;;11.80;;
71202;SDS011;58929;47.490;19.090;2023-11-21T18:58:48;20.85;;;9.65;;
71202;SDS011;58929;47.490;19.090;2023-11-21T19:01:24;21.60;;;9.32;;
71202;SDS011;58929;47.490;19.090;2023-11-21T19:03:53;22.02;;;9.35;;
71202;SDS011;58929;47.490;19.090;2023-11-21T19:06:21;25.55;;;10.15;;
71202;SDS011;58929;47.490;19.090;2023-11-21T19:08:49;30.40;;;11.00;;
71202;SDS011;58929;47.490;19.090;2023-11-21T19:11:18;34.47;;;9.98;;
71202;SDS011;58929;47.490;19.090;2023-11-21T19:13:46;17.95;;;9.32;;
71202;SDS011;58929;47.490;19.090;2023-11-21T19:16:17;20.65;;;9.90;;
71202;SDS011;58929;47.490;19.090;2023-11-21T19:18:49;18.63;;;9.38;;
71202;SDS011;58929;47.490;19.090;2023-11-21T19:21:17;26.35;;;10.07;;
71202;SDS011;58929;47.490;19.090;2023-11-21T19:23:45;20.65;;;10.25;;
71202;SDS011;58929;47.490;19.090;2023-11-21T19:26:15;20.15;;;9.57;;
71202;SDS011;58929;47.490;19.090;2023-11-21T19:28:43;23.45;;;10.05;;
71202;SDS011;58929;47.490;19.090;2023-11-21T19:31:19;25.75;;;9.50;;
71202;SDS011;58929;47.490;19.090;2023-11-21T19:33:56;31.98;;;9.98;;
71202;SDS011;58929;47.490;19.090;2023-11-21T19:36:24;20.52;;;10.45;;
71202;SDS011;58929;47.490;19.090;2023-11-21T19:38:52;33.40;;;10.73;;
71202;SDS011;58929;47.490;19.090;2023-11-21T19:41:20;19.77;;;9.55;;
71202;SDS011;58929;47.490;19.090;2023-11-21T19:43:49;23.08;;;10.30;;
71202;SDS011;58929;47.490;19.090;2023-11-21T19:46:17;28.30;;;9.30;;
71202;SDS011;58929;47.490;19.090;2023-11-21T19:48:48;20.02;;;8.73;;
71202;SDS011;58929;47.490;19.090;2023-11-21T19:51:20;18.67;;;9.32;;
71202;SDS011;58929;47.490;19.090;2023-11-21T19:53:48;29.85;;;12.50;;
71202;SDS011;58929;47.490;19.090;2023-11-21T19:56:16;43.83;;;17.65;;
71202;SDS011;58929;47.490;19.090;2023-11-21T19:58:45;23.55;;;11.35;;
71202;SDS011;58929;47.490;19.090;2023-11-21T20:01:14;24.10;;;9.70;;
71202;SDS011;58929;47.490;19.090;2023-11-21T20:03:42;28.08;;;9.45;;
71202;SDS011;58929;47.490;19.090;2023-11-21T20:06:12;24.70;;;9.77;;
71202;SDS011;58929;47.490;19.090;2023-11-21T20:08:40;21.67;;;9.95;;
71202;SDS011;58929;47.490;19.090;2023-11-21T20:11:08;15.07;;;9.13;;
71202;SDS011;58929;47.490;19.090;2023-11-21T20:13:37;21.63;;;8.88;;
71202;SDS011;58929;47.490;19.090;2023-11-21T20:16:05;21.65;;;10.73;;
71202;SDS011;58929;47.490;19.090;2023-11-21T20:18:33;23.33;;;9.85;;
71202;SDS011;58929;47.490;19.090;2023-11-21T20:21:01;25.35;;;9.40;;
71202;SDS011;58929;47.490;19.090;2023-11-21T20:23:31;22.83;;;10.23;;
71202;SDS011;58929;47.490;19.090;2023-11-21T20:26:00;24.10;;;11.77;;
71202;SDS011;58929;47.490;19.090;2023-11-21T20:28:28;22.20;;;9.60;;
71202;SDS011;58929;47.490;19.090;2023-11-21T20:30:56;21.33;;;9.63;;
71202;SDS011;58929;47.490;19.090;2023-11-21T20:33:37;19.00;;;9.80;;
71202;SDS011;58929;47.490;19.090;2023-11-21T20:36:06;23.60;;;10.30;;
71202;SDS011;58929;47.490;19.090;2023-11-21T20:38:36;21.95;;;11.00;;
71202;SDS011;58929;47.490;19.090;2023-11-21T20:41:04;25.42;;;12.18;;
71202;SDS011;58929;47.490;19.090;2023-11-21T20:43:33;26.58;;;11.35;;
71202;SDS011;58929;47.490;19.090;2023-11-21T20:46:01;18.65;;;10.15;;
71202;SDS011;58929;47.490;19.090;2023-11-21T20:48:29;21.58;;;9.90;;
71202;SDS011;58929;47.490;19.090;2023-11-21T20:50:58;19.42;;;9.65;;
71202;SDS011;58929;47.490;19.090;2023-11-21T20:53:26;17.33;;;9.38;;
71202;SDS011;58929;47.490;19.090;2023-11-21T20:55:55;24.00;;;10.55;;
71202;SDS011;58929;47.490;19.090;2023-11-21T20:58:27;22.75;;;10.82;;
71202;SDS011;58929;47.490;19.090;2023-11-21T21:00:55;19.50;;;9.68;;
71202;SDS011;58929;47.490;19.090;2023-11-21T21:03:22;22.73;;;10.38;;
71202;SDS011;58929;47.490;19.090;2023-11-21T21:05:51;27.10;;;10.63;;
71202;SDS011;58929;47.490;19.090;2023-11-21T21:08:19;21.10;;;10.15;;
71202;SDS011;58929;47.490;19.090;2023-11-21T21:10:49;18.35;;;9.48;;
71202;SDS011;58929;47.490;19.090;2023-11-21T21:13:21;21.95;;;10.70;;
71202;SDS011;58929;47.490;19.090;2023-11-21T21:15:49;16.67;;;9.73;;
71202;SDS011;58929;47.490;19.090;2023-11-21T21:18:17;21.45;;;11.13;;
71202;SDS011;58929;47.490;19.090;2023-11-21T21:20:48;20.45;;;9.68;;
71202;SDS011;58929;47.490;19.090;2023-11-21T21:23:17;20.77;;;9.00;;
71202;SDS011;58929;47.490;19.090;2023-11-21T21:25:45;18.90;;;8.98;;
71202;SDS011;58929;47.490;19.090;2023-11-21T21:28:13;18.17;;;8.50;;